Time;durP1;ratioP1;P1;durP2;ratioP2;P2;SDS_P1;SDS_P2;PMS_P1;PMS_P2;Temp;Humidity;BMP_temperature;BMP_pressure;BME280_temperature;BME280_humidity;BME280_pressure;Samples;Min_cycle;Max_cycle;Signal;HPM_P1;HPM_P2
2022/12/19 00:01:44;;;;;;;56.25;20.60;;;;;;;2.03;100.00;101738.44;5165621;28;20022;-74
2022/12/19 00:04:18;;;;;;;54.88;20.17;;;;;;;2.09;100.00;101745.16;5165466;28;20030;-75
2022/12/19 00:06:49;;;;;;;46.57;18.57;;;;;;;2.11;100.00;101732.72;5165155;28;20030;-75
2022/12/19 00:09:19;;;;;;;48.22;17.98;;;;;;;2.26;100.00;101723.88;5165524;28;20061;-75
2022/12/19 00:11:49;;;;;;;50.00;18.70;;;;;;;2.23;100.00;101715.25;5165221;28;20034;-74
2022/12/19 00:14:20;;;;;;;48.50;17.77;;;;;;;2.27;100.00;101707.03;5165558;28;20081;-77
2022/12/19 00:16:52;;;;;;;51.28;17.83;;;;;;;2.28;100.00;101714.03;5164521;28;20032;-76
2022/12/19 00:19:22;;;;;;;51.47;19.48;;;;;;;2.26;100.00;101718.56;5165487;28;20026;-75
2022/12/19 00:21:52;;;;;;;45.78;17.65;;;;;;;2.44;100.00;101721.03;5177249;28;20027;-76
2022/12/19 00:24:23;;;;;;;42.03;16.67;;;;;;;2.48;100.00;101720.75;5165356;28;20054;-76
2022/12/19 00:26:53;;;;;;;46.22;16.02;;;;;;;2.54;100.00;101716.88;5164541;28;20018;-77
2022/12/19 00:29:24;;;;;;;47.38;17.35;;;;;;;2.61;100.00;101715.59;5164963;28;20026;-76
2022/12/19 00:31:54;;;;;;;50.92;18.00;;;;;;;2.74;100.00;101710.38;5164434;28;20022;-76
2022/12/19 00:34:25;;;;;;;48.58;17.85;;;;;;;2.80;100.00;101702.88;5163756;28;20027;-76
2022/12/19 00:36:55;;;;;;;44.20;16.80;;;;;;;2.86;100.00;101691.03;5164644;28;20030;-75
2022/12/19 00:39:26;;;;;;;44.95;18.65;;;;;;;2.94;100.00;101688.78;5164931;28;20027;-77
2022/12/19 00:41:56;;;;;;;39.38;15.82;;;;;;;2.94;100.00;101686.13;5164814;28;20029;-76
2022/12/19 00:44:27;;;;;;;41.50;15.60;;;;;;;2.99;100.00;101681.38;5197051;28;20089;-76
2022/12/19 00:46:57;;;;;;;44.92;18.33;;;;;;;3.08;100.00;101677.31;5179514;28;20534;-75
2022/12/19 00:49:27;;;;;;;40.17;16.58;;;;;;;3.11;100.00;101680.63;5164936;28;20112;-74
2022/12/19 00:51:58;;;;;;;41.03;15.70;;;;;;;3.20;100.00;101676.50;5164528;28;20054;-75
2022/12/19 00:54:29;;;;;;;45.65;17.20;;;;;;;3.22;100.00;101676.44;5164928;28;20093;-74
2022/12/19 00:56:59;;;;;;;42.35;16.02;;;;;;;3.22;100.00;101681.75;5164102;28;20550;-74
2022/12/19 00:59:30;;;;;;;52.60;19.85;;;;;;;3.23;100.00;101689.59;5179740;28;20026;-75
2022/12/19 01:02:00;;;;;;;41.95;16.95;;;;;;;3.24;100.00;101688.63;5179627;28;20054;-75
2022/12/19 01:04:31;;;;;;;52.22;20.13;;;;;;;3.24;100.00;101687.78;5164343;28;20030;-75
2022/12/19 01:07:01;;;;;;;60.03;19.98;;;;;;;3.22;100.00;101682.59;5179137;28;20057;-75
2022/12/19 01:09:33;;;;;;;50.40;19.80;;;;;;;3.23;100.00;101684.28;5164612;28;20456;-76
2022/12/19 01:14:55;;;;;;;58.05;19.58;;;;;;;3.34;100.00;101678.28;5164736;28;20033;-76
2022/12/19 01:17:26;;;;;;;62.35;21.10;;;;;;;3.34;100.00;101679.13;5178957;28;20033;-76
2022/12/19 01:19:56;;;;;;;59.10;19.20;;;;;;;3.37;100.00;101681.59;5164260;28;20030;-75
2022/12/19 01:22:26;;;;;;;59.63;20.35;;;;;;;3.43;100.00;101674.19;5160770;28;20100;-76
2022/12/19 01:24:57;;;;;;;57.78;20.10;;;;;;;3.46;100.00;101672.16;5164187;28;20469;-74
2022/12/19 01:27:27;;;;;;;64.03;21.63;;;;;;;3.50;100.00;101670.16;5163485;28;20018;-75
2022/12/19 01:29:58;;;;;;;63.55;19.77;;;;;;;3.52;100.00;101662.97;5164106;28;20503;-75
2022/12/19 01:32:28;;;;;;;57.85;20.52;;;;;;;3.54;100.00;101658.41;5163665;28;20109;-75
2022/12/19 01:34:59;;;;;;;60.05;21.77;;;;;;;3.58;100.00;101651.97;5163970;28;20431;-74
2022/12/19 01:37:29;;;;;;;59.65;20.58;;;;;;;3.63;100.00;101652.50;5163309;28;20030;-75
2022/12/19 01:40:00;;;;;;;56.58;19.50;;;;;;;3.66;100.00;101654.09;5163385;28;20026;-75
2022/12/19 01:42:35;;;;;;;56.28;20.13;;;;;;;3.79;100.00;101647.88;5164047;28;20117;-75
2022/12/19 01:45:06;;;;;;;47.97;19.52;;;;;;;3.88;100.00;101649.91;5162759;28;20476;-76
2022/12/19 01:48:14;;;;;;;51.42;21.08;;;;;;;3.91;100.00;101648.84;5163145;28;20093;-74
2022/12/19 01:51:01;;;;;;;55.60;19.30;;;;;;;3.92;100.00;101647.91;5164012;28;20088;-76
2022/12/19 01:53:39;;;;;;;58.47;20.80;;;;;;;3.95;100.00;101642.38;5163566;28;20060;-76
2022/12/19 01:56:10;;;;;;;58.83;19.52;;;;;;;4.00;100.00;101642.91;5163564;28;20046;-76
2022/12/19 01:58:45;;;;;;;62.33;19.27;;;;;;;4.04;100.00;101646.22;5162403;28;20093;-75
2022/12/19 02:01:16;;;;;;;52.30;19.50;;;;;;;4.07;100.00;101644.22;5163909;28;20030;-76
2022/12/19 02:03:48;;;;;;;54.63;19.35;;;;;;;4.08;100.00;101634.44;5163918;28;20042;-76
2022/12/19 02:06:27;;;;;;;62.38;21.50;;;;;;;4.13;100.00;101637.63;5163601;28;20030;-75
2022/12/19 02:09:16;;;;;;;55.17;19.45;;;;;;;4.14;100.00;101620.72;5163251;28;20030;-75
2022/12/19 02:11:46;;;;;;;49.75;16.95;;;;;;;4.17;100.00;101628.50;5163491;28;20114;-76
2022/12/19 02:14:17;;;;;;;63.60;19.63;;;;;;;4.19;100.00;101615.09;5163368;28;20109;-75
2022/12/19 02:16:57;;;;;;;57.03;19.27;;;;;;;4.24;100.00;101610.31;5163382;28;20026;-76
2022/12/19 02:19:49;;;;;;;52.88;18.63;;;;;;;4.32;100.00;101614.16;5163339;28;20380;-77
2022/12/19 02:22:25;;;;;;;56.85;18.33;;;;;;;4.32;100.00;101615.97;5161738;28;20029;-77
2022/12/19 02:25:23;;;;;;;58.35;18.52;;;;;;;4.36;100.00;101614.75;5150429;28;20061;-77
2022/12/19 02:28:11;;;;;;;51.85;18.40;;;;;;;4.35;100.00;101608.59;5177646;28;20396;-76
2022/12/19 02:30:51;;;;;;;46.58;17.85;;;;;;;4.42;100.00;101603.72;5163016;28;20030;-76
2022/12/19 02:33:36;;;;;;;51.85;17.25;;;;;;;4.50;100.00;101606.66;5163351;28;20034;-76
2022/12/19 02:36:20;;;;;;;47.83;17.67;;;;;;;4.56;100.00;101600.06;5194202;28;20109;-75
2022/12/19 02:39:44;;;;;;;39.95;15.40;;;;;;;4.67;100.00;101589.53;5162525;28;20045;-76
2022/12/19 02:42:25;;;;;;;40.33;16.10;;;;;;;4.78;100.00;101597.59;5155904;28;20048;-75
2022/12/19 02:44:58;;;;;;;49.42;16.48;;;;;;;4.80;100.00;101586.84;5162974;28;20026;-75
2022/12/19 02:47:31;;;;;;;47.38;16.48;;;;;;;4.87;100.00;101586.31;5162368;28;20026;-75
2022/12/19 02:50:03;;;;;;;43.42;17.23;;;;;;;4.98;100.00;101589.97;5162851;28;20041;-76
2022/12/19 02:52:33;;;;;;;43.92;16.83;;;;;;;5.06;100.00;101590.25;5162911;28;20026;-75
2022/12/19 02:55:12;;;;;;;39.65;16.38;;;;;;;5.14;100.00;101586.06;5162430;28;20038;-77
2022/12/19 02:58:00;;;;;;;40.83;15.20;;;;;;;5.23;100.00;101586.38;5162520;28;20034;-75
2022/12/19 03:00:35;;;;;;;36.60;15.32;;;;;;;5.30;100.00;101580.47;5162863;28;20058;-75
2022/12/19 03:03:26;;;;;;;41.67;14.43;;;;;;;5.32;100.00;101577.69;5162510;28;20057;-75
2022/12/19 03:06:13;;;;;;;34.78;14.85;;;;;;;5.37;100.00;101580.84;5177911;28;20538;-76
2022/12/19 03:09:01;;;;;;;37.65;16.02;;;;;;;5.40;100.00;101580.63;5161894;28;20026;-76
2022/12/19 03:11:35;;;;;;;39.55;14.77;;;;;;;5.44;100.00;101577.63;5162148;28;20420;-76
2022/12/19 03:14:10;;;;;;;37.30;14.18;;;;;;;5.52;100.00;101574.38;5162592;28;20041;-76
2022/12/19 03:16:41;;;;;;;30.48;14.90;;;;;;;5.54;100.00;101571.63;5162324;28;20548;-76
2022/12/19 03:19:13;;;;;;;37.25;14.48;;;;;;;5.56;100.00;101586.50;5162497;28;20026;-75
2022/12/19 03:21:47;;;;;;;33.55;14.13;;;;;;;5.55;100.00;101583.94;5159165;28;20015;-74
2022/12/19 03:24:18;;;;;;;35.17;14.48;;;;;;;5.55;100.00;101575.97;5160916;28;20480;-76
2022/12/19 03:27:07;;;;;;;28.08;13.57;;;;;;;5.53;100.00;101570.78;5162373;28;20045;-77
2022/12/19 03:29:52;;;;;;;30.90;14.57;;;;;;;5.56;100.00;101578.50;5162360;28;20720;-76
2022/12/19 03:32:24;;;;;;;32.78;13.93;;;;;;;5.59;100.00;101574.78;5161014;28;20022;-76
2022/12/19 03:35:09;;;;;;;31.35;13.25;;;;;;;5.60;100.00;101577.31;5162450;28;20098;-76
2022/12/19 03:37:42;;;;;;;31.92;13.70;;;;;;;5.58;100.00;101581.91;5161946;28;20041;-76
2022/12/19 03:40:17;;;;;;;29.50;13.63;;;;;;;5.62;100.00;101580.72;5162355;28;20061;-76
2022/12/19 03:43:09;;;;;;;34.00;13.70;;;;;;;5.64;100.00;101577.94;5149627;28;20041;-76
2022/12/19 03:45:40;;;;;;;32.05;13.95;;;;;;;5.69;100.00;101567.78;5162231;28;20141;-76
2022/12/19 03:48:20;;;;;;;30.90;13.43;;;;;;;5.71;100.00;101565.84;5161886;28;20102;-75
2022/12/19 03:51:10;;;;;;;29.38;13.52;;;;;;;5.72;100.00;101567.53;5162262;28;20069;-77
2022/12/19 03:53:54;;;;;;;33.00;14.52;;;;;;;5.72;100.00;101580.84;5162332;28;20666;-78
2022/12/19 03:56:27;;;;;;;29.85;12.75;;;;;;;5.74;100.00;101570.09;5162295;28;20022;-77
2022/12/19 03:59:12;;;;;;;37.00;14.88;;;;;;;5.77;100.00;101567.19;5160413;28;20057;-76
2022/12/19 04:01:44;;;;;;;29.60;12.75;;;;;;;5.78;100.00;101564.44;5161743;28;20030;-75
2022/12/19 04:04:15;;;;;;;27.95;12.82;;;;;;;5.84;100.00;101563.09;5162146;28;20026;-76
2022/12/19 04:06:47;;;;;;;30.63;12.95;;;;;;;5.85;100.00;101564.78;5162806;28;20023;-73
2022/12/19 04:09:21;;;;;;;28.15;11.77;;;;;;;5.87;100.00;101558.41;5165674;28;20026;-75
2022/12/19 04:12:08;;;;;;;24.80;11.43;;;;;;;5.93;100.00;101565.94;5165400;28;20117;-75
2022/12/19 04:14:39;;;;;;;25.75;11.68;;;;;;;5.96;100.00;101559.50;5165590;28;20032;-75
2022/12/19 04:17:45;;;;;;;25.17;11.70;;;;;;;5.97;100.00;101559.41;5165480;28;20030;-75
2022/12/19 04:20:19;;;;;;;23.75;10.93;;;;;;;6.02;100.00;101555.53;5154151;28;20392;-75
2022/12/19 04:23:05;;;;;;;25.77;10.98;;;;;;;6.01;100.00;101556.50;5162689;28;20026;-75
2022/12/19 04:25:44;;;;;;;22.45;10.38;;;;;;;6.06;100.00;101562.31;5166084;28;20117;-75
2022/12/19 04:28:29;;;;;;;19.77;10.30;;;;;;;6.12;100.00;101567.16;5153390;28;20110;-75
2022/12/19 04:31:00;;;;;;;22.70;10.45;;;;;;;6.19;100.00;101576.38;5165649;28;20030;-75
2022/12/19 04:33:31;;;;;;;21.80;10.23;;;;;;;6.18;100.00;101574.69;5165757;28;20022;-75
2022/12/19 04:36:01;;;;;;;19.40;9.63;;;;;;;6.15;100.00;101572.25;5165586;28;20535;-75
2022/12/19 04:38:32;;;;;;;21.60;10.25;;;;;;;6.18;100.00;101574.69;5180692;28;20037;-75
2022/12/19 04:41:03;;;;;;;20.17;9.73;;;;;;;6.27;100.00;101581.94;5165118;28;20070;-76
2022/12/19 04:43:33;;;;;;;22.77;10.07;;;;;;;6.27;100.00;101570.44;5165150;28;20034;-76
2022/12/19 04:46:04;;;;;;;17.70;8.55;;;;;;;6.30;100.00;101573.72;5165191;28;20026;-76
2022/12/19 04:48:35;;;;;;;21.95;8.70;;;;;;;6.28;100.00;101569.50;5164692;28;20073;-76
2022/12/19 04:51:06;;;;;;;17.45;8.88;;;;;;;6.30;100.00;101572.88;5165218;28;20105;-76
2022/12/19 04:53:36;;;;;;;19.52;9.18;;;;;;;6.28;100.00;101580.16;5164902;28;20459;-76
2022/12/19 04:56:08;;;;;;;19.15;9.75;;;;;;;6.25;100.00;101573.22;5165139;28;20026;-75
2022/12/19 04:58:39;;;;;;;18.75;9.68;;;;;;;6.26;100.00;101585.56;5164663;28;20475;-76
2022/12/19 05:01:09;;;;;;;21.70;9.40;;;;;;;6.21;100.00;101574.44;5164875;28;20065;-75
2022/12/19 05:03:40;;;;;;;20.20;9.02;;;;;;;6.24;100.00;101579.53;5164756;28;20053;-75
2022/12/19 05:06:13;;;;;;;20.45;9.43;;;;;;;6.25;100.00;101575.88;5164774;28;20097;-76
2022/12/19 05:08:44;;;;;;;18.08;9.57;;;;;;;6.25;100.00;101580.38;5164484;28;20030;-76
2022/12/19 05:11:15;;;;;;;16.70;8.82;;;;;;;6.27;100.00;101567.78;5164500;28;20069;-76
2022/12/19 05:13:46;;;;;;;23.00;10.15;;;;;;;6.27;100.00;101565.09;5164816;28;20081;-76
2022/12/19 05:16:17;;;;;;;21.85;9.18;;;;;;;6.25;100.00;101562.56;5164431;28;20030;-76
2022/12/19 05:18:47;;;;;;;19.05;10.63;;;;;;;6.31;100.00;101558.56;5162867;28;20476;-76
2022/12/19 05:21:18;;;;;;;24.02;10.05;;;;;;;6.34;100.00;101559.19;5161193;28;20038;-76
2022/12/19 05:23:50;;;;;;;20.98;10.10;;;;;;;6.36;100.00;101559.91;5164725;28;20030;-76
2022/12/19 05:26:20;;;;;;;14.43;7.78;;;;;;;6.41;100.00;101551.53;5164165;28;20088;-76
2022/12/19 05:28:51;;;;;;;22.95;9.40;;;;;;;6.37;100.00;101563.41;5164197;28;20117;-76
2022/12/19 05:31:21;;;;;;;19.63;9.50;;;;;;;6.37;100.00;101558.91;5163960;28;20038;-76
2022/12/19 05:33:51;;;;;;;18.33;9.38;;;;;;;6.40;100.00;101565.84;5164172;28;20026;-76
2022/12/19 05:36:22;;;;;;;18.45;9.18;;;;;;;6.42;100.00;101579.88;5163021;28;20065;-76
2022/12/19 05:38:53;;;;;;;17.95;9.43;;;;;;;6.46;100.00;101573.34;5163617;28;20022;-76
2022/12/19 05:41:23;;;;;;;17.23;9.45;;;;;;;6.52;100.00;101580.84;5164121;28;20045;-76
2022/12/19 05:43:55;;;;;;;19.30;7.93;;;;;;;6.54;100.00;101572.75;5163862;28;20384;-76
2022/12/19 05:46:26;;;;;;;16.83;7.72;;;;;;;6.56;100.00;101573.47;5163846;28;20034;-77
2022/12/19 05:48:56;;;;;;;13.27;7.75;;;;;;;6.58;100.00;101571.53;5163409;28;20022;-77
2022/12/19 05:51:27;;;;;;;14.15;7.65;;;;;;;6.59;100.00;101576.75;5163905;28;20366;-76
2022/12/19 05:53:59;;;;;;;18.65;8.98;;;;;;;6.58;100.00;101575.06;5163719;28;20456;-76
2022/12/19 05:56:30;;;;;;;13.55;7.68;;;;;;;6.61;100.00;101585.44;5163764;28;20483;-76
2022/12/19 05:59:00;;;;;;;17.38;9.45;;;;;;;6.62;100.00;101576.47;5163321;28;20029;-76
2022/12/19 06:01:31;;;;;;;15.10;7.88;;;;;;;6.63;100.00;101578.19;5163744;28;20018;-76
2022/12/19 06:04:03;;;;;;;18.33;8.88;;;;;;;6.67;100.00;101573.44;5163607;28;20044;-76
2022/12/19 06:06:33;;;;;;;16.10;9.02;;;;;;;6.73;100.00;101583.63;5163258;28;20495;-76
2022/12/19 06:09:04;;;;;;;16.08;7.95;;;;;;;6.73;100.00;101580.97;5163451;28;20030;-76
2022/12/19 06:11:34;;;;;;;16.70;7.95;;;;;;;6.75;100.00;101595.88;5163302;28;20069;-76
2022/12/19 06:14:05;;;;;;;14.50;7.63;;;;;;;6.77;100.00;101595.72;5163562;28;20069;-75
2022/12/19 06:16:35;;;;;;;14.68;7.75;;;;;;;6.80;100.00;101589.31;5163282;28;20026;-75
2022/12/19 06:19:06;;;;;;;18.45;9.38;;;;;;;6.81;100.00;101596.34;5162725;28;20460;-75
2022/12/19 06:21:36;;;;;;;17.23;7.47;;;;;;;6.79;100.00;101588.47;5159808;28;20101;-74
2022/12/19 06:24:07;;;;;;;13.80;8.07;;;;;;;6.76;100.00;101575.38;5163545;28;20038;-74
2022/12/19 06:26:38;;;;;;;13.68;7.22;;;;;;;6.78;100.00;101580.56;5163115;28;20507;-74
2022/12/19 06:29:08;;;;;;;15.02;7.43;;;;;;;6.80;100.00;101587.50;5162446;28;20033;-74
2022/12/19 06:31:38;;;;;;;14.13;6.95;;;;;;;6.79;100.00;101575.13;5194202;28;20054;-74
2022/12/19 06:34:09;;;;;;;16.45;7.82;;;;;;;6.80;100.00;101575.97;5162893;28;20026;-74
2022/12/19 06:36:40;;;;;;;15.25;7.72;;;;;;;6.84;100.00;101596.09;5162817;28;20026;-74
2022/12/19 06:39:13;;;;;;;14.43;7.32;;;;;;;6.88;100.00;101594.88;5162719;28;20084;-74
2022/12/19 06:44:33;;;;;;;16.48;6.82;;;;;;;6.85;100.00;101590.63;5151387;28;20031;-74
2022/12/19 06:47:03;;;;;;;13.27;7.35;;;;;;;6.83;100.00;101581.03;5162421;28;20399;-74
2022/12/19 06:49:34;;;;;;;13.15;7.55;;;;;;;6.90;100.00;101579.59;5162893;28;20023;-74
2022/12/19 06:52:04;;;;;;;12.20;6.85;;;;;;;6.87;100.00;101587.84;5162718;28;20061;-74
2022/12/19 06:54:34;;;;;;;13.18;6.70;;;;;;;6.93;100.00;101584.69;5161701;28;20026;-74
2022/12/19 06:57:05;;;;;;;15.32;6.82;;;;;;;6.95;100.00;101588.91;5162107;28;20109;-74
2022/12/19 06:59:35;;;;;;;17.55;6.85;;;;;;;6.98;100.00;101586.00;5177950;28;20437;-74
2022/12/19 07:02:16;;;;;;;17.20;6.45;;;;;;;7.00;100.00;101585.88;5162573;28;20544;-74
2022/12/19 07:04:51;;;;;;;13.18;6.43;;;;;;;7.05;100.00;101598.84;5162644;28;20038;-74
2022/12/19 07:07:22;;;;;;;;;;;;;;;7.08;100.00;101593.25;5162579;28;20057;-74
2022/12/19 07:09:52;;;;;;;13.48;6.43;;;;;;;7.06;100.00;101571.19;5162397;28;19964;-74
2022/12/19 07:12:22;;;;;;;16.85;7.65;;;;;;;7.10;100.00;101575.31;5162644;28;20026;-74
2022/12/19 07:14:53;;;;;;;13.15;6.43;;;;;;;7.10;100.00;101585.97;5162490;28;20026;-74
2022/12/19 07:17:24;;;;;;;11.40;5.90;;;;;;;7.15;100.00;101579.28;5161785;28;20037;-74
2022/12/19 07:19:56;;;;;;;13.52;6.95;;;;;;;7.15;100.00;101584.63;5162482;28;20054;-74
2022/12/19 07:22:32;;;;;;;10.45;6.30;;;;;;;7.18;100.00;101572.88;5174274;28;20534;-74
2022/12/19 07:25:04;;;;;;;10.13;5.60;;;;;;;7.20;100.00;101579.75;5162619;28;20400;-74
2022/12/19 07:27:35;;;;;;;11.65;5.78;;;;;;;7.23;100.00;101568.84;5162005;28;20049;-74
2022/12/19 07:30:07;;;;;;;10.45;5.90;;;;;;;7.25;100.00;101572.22;5162264;28;20026;-74
2022/12/19 07:32:38;;;;;;;12.35;5.90;;;;;;;7.33;100.00;101576.94;5162260;28;20041;-74
2022/12/19 07:35:08;;;;;;;12.25;5.55;;;;;;;7.36;100.00;101573.16;5162557;28;20030;-74
2022/12/19 07:37:39;;;;;;;11.60;5.95;;;;;;;7.39;100.00;101573.75;5161921;28;20148;-74
2022/12/19 07:40:13;;;;;;;11.82;6.20;;;;;;;7.39;100.00;101579.09;5162404;28;20089;-74
2022/12/19 07:42:44;;;;;;;12.80;6.43;;;;;;;7.43;100.00;101583.19;5151787;28;20026;-74
2022/12/19 07:45:15;;;;;;;8.10;5.18;;;;;;;7.39;100.00;101579.09;5166343;28;20109;-74
2022/12/19 07:47:46;;;;;;;10.88;5.20;;;;;;;7.39;100.00;101583.56;5165701;28;20198;-74
2022/12/19 07:50:17;;;;;;;8.80;5.68;;;;;;;7.37;100.00;101583.69;5166194;28;20027;-74
2022/12/19 07:52:47;;;;;;;13.02;6.43;;;;;;;7.35;100.00;101582.97;5166048;28;20034;-74
2022/12/19 07:55:18;;;;;;;10.18;5.20;;;;;;;7.35;100.00;101601.66;5166094;28;20050;-74
2022/12/19 07:57:48;;;;;;;11.27;5.50;;;;;;;7.51;100.00;101591.41;5165560;28;20027;-74
2022/12/19 08:00:19;;;;;;;11.35;5.18;;;;;;;7.49;100.00;101582.69;5165932;28;20476;-74
2022/12/19 08:02:49;;;;;;;11.43;5.85;;;;;;;7.48;100.00;101590.78;5165986;28;20034;-74
2022/12/19 08:05:20;;;;;;;12.90;5.68;;;;;;;7.51;100.00;101572.72;5164683;28;20026;-74
2022/12/19 08:07:50;;;;;;;13.50;5.35;;;;;;;7.57;100.00;101582.03;5165438;28;20029;-74
2022/12/19 08:10:21;;;;;;;9.07;5.22;;;;;;;7.58;100.00;101580.19;5165952;28;20034;-74
2022/12/19 08:12:52;;;;;;;13.27;5.63;;;;;;;7.61;100.00;101579.94;5165705;28;20062;-74
2022/12/19 08:15:23;;;;;;;15.80;5.88;;;;;;;7.62;100.00;101595.00;5165818;28;20064;-74
2022/12/19 08:17:54;;;;;;;9.77;5.32;;;;;;;7.63;100.00;101612.69;5179929;28;20030;-74
2022/12/19 08:20:24;;;;;;;7.60;4.50;;;;;;;7.72;100.00;101604.75;5165695;28;20041;-74
2022/12/19 08:22:55;;;;;;;10.52;4.70;;;;;;;7.74;100.00;101600.16;5162375;28;20480;-74
2022/12/19 08:25:25;;;;;;;12.32;4.95;;;;;;;7.77;100.00;101602.56;5165604;28;20125;-74
2022/12/19 08:27:55;;;;;;;11.32;5.03;;;;;;;7.83;100.00;101606.56;5165071;28;20526;-74
2022/12/19 08:30:26;;;;;;;8.10;4.28;;;;;;;7.90;100.00;101614.88;5165160;28;20480;-74
2022/12/19 08:32:56;;;;;;;14.85;4.78;;;;;;;7.93;100.00;101631.50;5164013;28;20049;-74
2022/12/19 08:35:27;;;;;;;8.50;4.28;;;;;;;7.98;100.00;101634.66;5165347;28;20026;-74
2022/12/19 08:37:57;;;;;;;9.05;4.25;;;;;;;8.01;100.00;101629.03;5180199;28;20033;-74
2022/12/19 08:40:28;;;;;;;8.32;4.28;;;;;;;8.00;100.00;101619.31;5165195;28;20032;-74
2022/12/19 08:42:58;;;;;;;7.97;4.32;;;;;;;8.04;100.00;101635.94;5164993;28;20026;-74
2022/12/19 08:45:29;;;;;;;8.23;4.60;;;;;;;8.08;100.00;101631.16;5165028;28;20022;-74
2022/12/19 08:47:59;;;;;;;9.25;4.72;;;;;;;8.13;100.00;101635.13;5164623;28;20026;-74
2022/12/19 08:50:30;;;;;;;7.78;4.13;;;;;;;8.13;100.00;101624.44;5165099;28;20105;-74
2022/12/19 08:53:00;;;;;;;8.82;4.28;;;;;;;8.16;100.00;101631.38;5164669;28;20073;-74
2022/12/19 08:55:31;;;;;;;8.25;3.83;;;;;;;8.20;100.00;101614.09;5196429;28;20037;-74
2022/12/19 08:58:01;;;;;;;6.45;4.18;;;;;;;8.23;100.00;101627.19;5164486;28;20098;-74
2022/12/19 09:00:31;;;;;;;7.35;4.03;;;;;;;8.23;100.00;101604.00;5164733;28;20497;-74
2022/12/19 09:03:02;;;;;;;5.97;3.88;;;;;;;8.24;100.00;101612.84;5179929;28;20083;-74
2022/12/19 09:05:32;;;;;;;9.63;3.97;;;;;;;8.25;100.00;101614.53;5164907;28;20030;-74
2022/12/19 09:08:03;;;;;;;9.07;3.97;;;;;;;8.26;100.00;101608.22;5164092;28;20126;-74
2022/12/19 09:10:37;;;;;;;8.77;4.18;;;;;;;8.29;100.00;101611.47;5164564;28;20037;-74
2022/12/19 09:13:08;;;;;;;7.22;3.97;;;;;;;8.29;100.00;101618.66;5164436;28;20030;-74
2022/12/19 09:15:39;;;;;;;5.97;3.42;;;;;;;8.33;100.00;101612.03;5164625;28;20495;-74
2022/12/19 09:18:10;;;;;;;12.95;3.83;;;;;;;8.37;100.00;101607.31;5163611;28;20030;-74
2022/12/19 09:20:41;;;;;;;6.88;4.28;;;;;;;8.42;100.00;101629.16;5164225;28;20531;-74
2022/12/19 09:23:11;;;;;;;7.75;3.92;;;;;;;8.42;100.00;101629.16;5160914;28;20029;-74
2022/12/19 09:25:41;;;;;;;7.65;3.78;;;;;;;8.42;100.00;101629.16;5164276;28;20049;-74
2022/12/19 09:28:12;;;;;;;6.88;4.30;;;;;;;8.44;100.00;101627.19;5164185;28;20021;-74
2022/12/19 09:30:42;;;;;;;9.82;4.55;;;;;;;8.43;100.00;101626.31;5163887;28;20034;-74
2022/12/19 09:33:13;;;;;;;9.20;3.47;;;;;;;8.45;100.00;101637.75;5164039;28;20092;-74
2022/12/19 09:35:54;;;;;;;9.52;3.83;;;;;;;8.46;100.00;101642.13;5164159;28;20096;-74
2022/12/19 09:38:27;;;;;;;7.05;3.90;;;;;;;8.46;100.00;101639.44;5163893;28;20031;-74
2022/12/19 09:40:57;;;;;;;6.85;3.20;;;;;;;8.47;100.00;101641.13;5164026;28;20026;-74
2022/12/19 09:43:54;;;;;;;5.50;3.50;;;;;;;8.46;100.00;101643.94;5163827;28;20026;-74
2022/12/19 09:46:48;;;;;;;11.68;4.50;;;;;;;8.42;100.00;101650.53;5155745;28;20069;-74
2022/12/19 09:49:36;;;;;;;9.38;4.10;;;;;;;8.39;100.00;101643.66;5162713;28;20027;-73
2022/12/19 09:52:14;;;;;;;8.50;4.03;;;;;;;8.39;100.00;101649.00;5164158;28;20377;-74
2022/12/19 09:55:17;;;;;;;9.63;4.00;;;;;;;8.39;100.00;101649.00;5195656;28;20027;-74
2022/12/19 09:58:00;;;;;;;5.90;3.40;;;;;;;8.36;100.00;101646.56;5160714;28;20054;-74
2022/12/19 10:00:41;;;;;;;6.53;3.88;;;;;;;8.28;100.00;101654.34;5163540;28;20029;-75
2022/12/19 10:03:24;;;;;;;9.30;4.07;;;;;;;8.21;100.00;101655.88;5163617;28;20022;-75
2022/12/19 10:06:05;;;;;;;9.48;4.22;;;;;;;8.14;100.00;101650.22;5162982;28;20027;-75
2022/12/19 10:08:39;;;;;;;8.82;4.13;;;;;;;8.05;100.00;101646.50;5162983;28;20165;-75
2022/12/19 10:11:28;;;;;;;8.52;4.45;;;;;;;8.03;100.00;101643.13;5163231;28;20030;-75
2022/12/19 10:14:13;;;;;;;8.20;5.05;;;;;;;7.98;100.00;101666.72;5163678;28;20022;-75
2022/12/19 10:17:11;;;;;;;10.52;4.60;;;;;;;7.97;100.00;101656.13;5163165;28;20125;-75
2022/12/19 10:19:50;;;;;;;9.02;4.55;;;;;;;7.93;100.00;101647.53;5163401;28;20054;-74
2022/12/19 10:22:41;;;;;;;9.13;4.68;;;;;;;7.97;100.00;101662.31;5160277;28;20025;-75
2022/12/19 10:25:20;;;;;;;7.47;4.47;;;;;;;8.00;100.00;101662.06;5163439;28;20457;-75
2022/12/19 10:28:04;;;;;;;10.23;5.53;;;;;;;8.04;100.00;101663.50;5162827;28;20038;-75
2022/12/19 10:30:42;;;;;;;12.90;4.85;;;;;;;8.02;100.00;101664.59;5163275;28;20109;-74
2022/12/19 10:33:25;;;;;;;13.38;4.38;;;;;;;8.03;100.00;101661.81;5162740;28;20023;-75
2022/12/19 10:35:59;;;;;;;8.40;4.40;;;;;;;8.06;100.00;101658.03;5163219;28;20365;-74
2022/12/19 10:38:36;;;;;;;7.95;4.10;;;;;;;8.13;100.00;101650.31;5162568;28;20073;-74
2022/12/19 10:41:09;;;;;;;8.73;4.30;;;;;;;8.22;100.00;101647.72;5163059;28;20030;-74
2022/12/19 10:44:04;;;;;;;7.10;3.90;;;;;;;8.27;100.00;101631.28;5162567;28;20032;-74
2022/12/19 10:46:34;;;;;;;9.82;4.00;;;;;;;8.34;100.00;101634.28;5162473;28;20103;-74
2022/12/19 10:49:18;;;;;;;9.98;4.15;;;;;;;8.38;100.00;101630.38;5162461;28;20034;-73
2022/12/19 10:51:55;;;;;;;7.88;3.88;;;;;;;8.46;100.00;101633.25;5162818;28;20034;-75
2022/12/19 10:54:36;;;;;;;6.72;3.92;;;;;;;8.52;100.00;101628.22;5162917;28;20053;-73
2022/12/19 10:57:27;;;;;;;8.48;3.65;;;;;;;8.64;100.00;101625.47;5162211;28;20030;-73
2022/12/19 11:00:05;;;;;;;6.75;3.55;;;;;;;8.68;100.00;101621.50;5162541;28;20030;-73
2022/12/19 11:02:38;;;;;;;4.32;3.03;;;;;;;8.78;100.00;101619.72;5162660;28;20033;-73
2022/12/19 11:05:28;;;;;;;6.13;3.63;;;;;;;8.91;100.00;101620.34;5162593;28;20054;-73
2022/12/19 11:08:07;;;;;;;8.35;3.28;;;;;;;9.01;100.00;101610.50;5162254;28;20057;-73
2022/12/19 11:10:40;;;;;;;6.25;3.47;;;;;;;9.06;100.00;101602.06;5162579;28;20114;-73
2022/12/19 11:13:19;;;;;;;5.45;3.03;;;;;;;9.16;100.00;101620.81;5162254;28;20440;-73
2022/12/19 11:15:56;;;;;;;6.47;3.22;;;;;;;9.22;100.00;101609.53;5163575;28;20053;-73
2022/12/19 11:18:46;;;;;;;7.60;4.32;;;;;;;9.31;100.00;101614.91;5166489;28;20031;-74
2022/12/19 11:21:30;;;;;;;6.53;2.60;;;;;;;9.38;100.00;101609.00;5163264;28;20027;-74
2022/12/19 11:24:10;;;;;;;5.55;2.50;;;;;;;9.46;100.00;101606.47;5159585;28;20034;-73
2022/12/19 11:26:49;;;;;;;9.88;2.95;;;;;;;9.57;100.00;101607.16;5154813;28;20077;-73
2022/12/19 11:29:25;;;;;;;4.57;2.55;;;;;;;9.65;100.00;101598.44;5166470;28;20472;-74
2022/12/19 11:32:00;;;;;;;8.57;3.28;;;;;;;9.72;100.00;101604.91;5166518;28;20101;-73
2022/12/19 11:34:34;;;;;;;6.22;3.30;;;;;;;9.72;100.00;101593.34;5166601;28;20030;-73
2022/12/19 11:37:21;;;;;;;4.57;2.60;;;;;;;9.72;100.00;101585.31;5165809;28;20029;-73
2022/12/19 11:40:02;;;;;;;4.38;3.10;;;;;;;9.75;100.00;101590.41;5166592;28;20373;-73
2022/12/19 11:42:42;;;;;;;6.10;3.17;;;;;;;9.75;100.00;101583.19;5166282;28;20026;-73
2022/12/19 11:45:41;;;;;;;8.63;3.53;;;;;;;9.79;100.00;101589.13;5166298;28;20022;-73
2022/12/19 11:48:26;;;;;;;8.68;2.80;;;;;;;9.83;100.00;101588.66;5165550;28;20054;-73
2022/12/19 11:51:34;;;;;;;5.80;2.63;;;;;;;9.90;100.00;101582.75;5166597;28;20044;-75
2022/12/19 11:54:29;;;;;;;6.35;2.85;;;;;;;9.98;100.00;101582.88;5166146;28;20049;-74
2022/12/19 11:56:59;;;;;;;10.98;3.47;;;;;;;10.06;100.00;101578.47;5165531;28;20100;-74
2022/12/19 11:59:34;;;;;;;5.88;2.35;;;;;;;10.10;100.00;101562.97;5166191;28;20092;-74